Time;durP1;ratioP1;P1;durP2;ratioP2;P2;SDS_P1;SDS_P2;PMS_P1;PMS_P2;Temp;Humidity;BMP_temperature;BMP_pressure;BME280_temperature;BME280_humidity;BME280_pressure;Samples;Min_cycle;Max_cycle;Signal;HPM_P1;HPM_P2
2021/10/25 00:02:21;;;;;;;12.33;6.53;;;;;;;;;;5016292;28;20388;-88
2021/10/25 00:04:46;;;;;;;12.63;6.82;;;;;;;;;;5016289;28;20257;-89
2021/10/25 00:07:11;;;;;;;17.27;8.52;;;;;;;;;;5033876;28;20044;-89
2021/10/25 00:09:36;;;;;;;22.60;7.90;;;;;;;;;;5016032;28;20021;-88
2021/10/25 00:12:02;;;;;;;13.30;8.02;;;;;;;;;;5016235;28;20028;-89
2021/10/25 00:14:27;;;;;;;12.52;6.68;;;;;;;;;;5033744;28;20055;-89
2021/10/25 00:16:53;;;;;;;15.40;8.07;;;;;;;;;;5016081;28;20113;-89
2021/10/25 00:19:18;;;;;;;14.82;7.90;;;;;;;;;;5033704;28;20017;-89
2021/10/25 00:21:44;;;;;;;14.27;7.10;;;;;;;;;;5015852;28;20021;-89
2021/10/25 00:24:09;;;;;;;16.63;7.30;;;;;;;;;;5015892;28;20083;-88
2021/10/25 00:26:35;;;;;;;16.17;7.80;;;;;;;;;;5018049;28;20107;-88
2021/10/25 00:29:01;;;;;;;12.98;7.40;;;;;;;;;;5033619;28;20037;-88
2021/10/25 00:31:26;;;;;;;18.05;8.88;;;;;;;;;;5016122;28;20024;-89
2021/10/25 00:33:51;;;;;;;17.25;7.45;;;;;;;;;;5015949;28;20084;-89
2021/10/25 00:36:17;;;;;;;10.13;7.32;;;;;;;;;;5033558;28;20021;-88
2021/10/25 00:38:42;;;;;;;14.00;7.50;;;;;;;;;;5015841;28;20725;-89
2021/10/25 00:41:09;;;;;;;16.08;8.00;;;;;;;;;;5033380;28;20081;-89
2021/10/25 00:43:34;;;;;;;12.63;7.03;;;;;;;;;;5015696;28;20059;-89
2021/10/25 00:45:59;;;;;;;14.32;7.28;;;;;;;;;;5018071;28;20458;-89
2021/10/25 00:48:24;;;;;;;14.75;8.02;;;;;;;;;;5019749;28;20018;-89
2021/10/25 00:50:50;;;;;;;14.68;7.70;;;;;;;;;;5037356;28;20052;-89
2021/10/25 00:53:15;;;;;;;15.02;7.72;;;;;;;;;;5037135;28;20388;-89
2021/10/25 00:55:41;;;;;;;19.48;7.78;;;;;;;;;;5037300;28;20519;-89
2021/10/25 00:58:07;;;;;;;15.35;7.82;;;;;;;;;;5016714;28;20017;-89
2021/10/25 01:00:32;;;;;;;16.55;8.35;;;;;;;;;;5016679;28;20508;-89
2021/10/25 01:02:58;;;;;;;17.17;9.35;;;;;;;;;;5016772;28;20029;-89
2021/10/25 01:05:23;;;;;;;13.60;8.40;;;;;;;;;;5016520;28;20487;-89
2021/10/25 01:07:50;;;;;;;12.20;7.65;;;;;;;;;;5016468;28;20021;-89
2021/10/25 01:10:15;;;;;;;16.63;7.53;;;;;;;;;;5016117;28;20029;-89
2021/10/25 01:12:40;;;;;;;15.38;6.93;;;;;;;;;;5034249;28;20029;-89
2021/10/25 01:15:06;;;;;;;13.70;8.50;;;;;;;;;;5015937;28;20044;-89
2021/10/25 01:17:31;;;;;;;13.25;9.02;;;;;;;;;;5021519;28;20390;-89
2021/10/25 01:19:58;;;;;;;17.60;9.20;;;;;;;;;;5015940;28;20108;-89
2021/10/25 01:22:24;;;;;;;13.75;7.40;;;;;;;;;;5015931;28;20113;-89
2021/10/25 01:24:50;;;;;;;18.63;9.00;;;;;;;;;;5033754;28;20152;-89
2021/10/25 01:27:15;;;;;;;23.90;8.73;;;;;;;;;;5016087;28;20634;-89
2021/10/25 01:29:40;;;;;;;15.77;8.67;;;;;;;;;;5015712;28;20049;-89
2021/10/25 01:32:06;;;;;;;16.17;8.30;;;;;;;;;;5016203;28;20276;-89
2021/10/25 01:34:31;;;;;;;12.00;7.25;;;;;;;;;;5034018;28;20752;-89
2021/10/25 01:36:56;;;;;;;15.02;8.05;;;;;;;;;;5016003;28;20028;-89
2021/10/25 01:39:22;;;;;;;15.77;8.55;;;;;;;;;;5015894;28;20017;-89
2021/10/25 01:41:47;;;;;;;16.02;8.57;;;;;;;;;;5015748;28;20024;-89
2021/10/25 01:44:12;;;;;;;16.88;7.82;;;;;;;;;;5015681;28;20506;-89
2021/10/25 01:46:38;;;;;;;15.23;8.07;;;;;;;;;;5025015;28;20014;-89
2021/10/25 01:49:04;;;;;;;11.95;7.53;;;;;;;;;;5015711;28;20722;-89
2021/10/25 01:51:29;;;;;;;13.57;7.47;;;;;;;;;;5015337;28;20029;-89
2021/10/25 01:53:54;;;;;;;13.82;8.00;;;;;;;;;;5033189;28;20072;-89
2021/10/25 01:56:20;;;;;;;13.15;7.50;;;;;;;;;;5032941;28;20080;-88
2021/10/25 01:58:45;;;;;;;12.93;7.85;;;;;;;;;;5015142;28;20025;-89
2021/10/25 02:01:15;;;;;;;17.35;8.63;;;;;;;;;;5015282;28;20024;-88
2021/10/25 02:03:40;;;;;;;17.88;8.90;;;;;;;;;;5015233;28;20041;-89
2021/10/25 02:06:06;;;;;;;22.07;8.93;;;;;;;;;;5015358;28;20029;-88
2021/10/25 02:08:31;;;;;;;17.20;8.32;;;;;;;;;;5033301;28;20248;-89
2021/10/25 02:10:56;;;;;;;19.20;9.93;;;;;;;;;;5015111;28;20025;-89
2021/10/25 02:13:21;;;;;;;16.98;9.35;;;;;;;;;;5015132;28;20018;-89
2021/10/25 02:15:47;;;;;;;17.83;9.88;;;;;;;;;;5021862;28;20030;-89
2021/10/25 02:18:13;;;;;;;14.77;8.45;;;;;;;;;;5015198;28;20111;-89
2021/10/25 02:20:39;;;;;;;18.73;9.25;;;;;;;;;;5015082;28;20017;-89
2021/10/25 02:23:05;;;;;;;12.93;7.80;;;;;;;;;;5032820;28;20032;-88
2021/10/25 02:25:30;;;;;;;21.25;9.32;;;;;;;;;;5032809;28;20021;-89
2021/10/25 02:27:55;;;;;;;16.13;9.87;;;;;;;;;;5014820;28;20025;-89
2021/10/25 02:30:21;;;;;;;15.07;8.70;;;;;;;;;;5014547;28;20291;-89
2021/10/25 02:32:47;;;;;;;11.25;7.72;;;;;;;;;;5014709;28;20449;-89
2021/10/25 02:35:12;;;;;;;17.23;9.52;;;;;;;;;;5014601;28;20052;-88
2021/10/25 02:37:37;;;;;;;16.02;9.38;;;;;;;;;;5014643;28;20072;-88
2021/10/25 02:40:03;;;;;;;13.57;8.23;;;;;;;;;;5014677;28;20116;-88
2021/10/25 02:42:28;;;;;;;14.52;8.45;;;;;;;;;;5016111;28;20060;-89
2021/10/25 02:44:53;;;;;;;13.55;9.15;;;;;;;;;;5014640;28;20071;-89
2021/10/25 02:47:18;;;;;;;15.10;8.83;;;;;;;;;;5014722;28;20031;-89
2021/10/25 02:49:44;;;;;;;13.40;8.13;;;;;;;;;;5032076;28;20304;-88
2021/10/25 02:52:09;;;;;;;17.10;9.10;;;;;;;;;;5032484;28;20028;-88
2021/10/25 02:54:34;;;;;;;15.30;9.13;;;;;;;;;;5014093;28;20033;-89
2021/10/25 02:56:59;;;;;;;20.10;10.07;;;;;;;;;;5014416;28;20024;-89
2021/10/25 02:59:24;;;;;;;16.55;8.68;;;;;;;;;;5014237;28;20913;-89
2021/10/25 03:01:50;;;;;;;15.60;9.70;;;;;;;;;;5032281;28;20049;-89
2021/10/25 03:04:15;;;;;;;20.95;10.38;;;;;;;;;;5014261;28;20037;-89
2021/10/25 03:06:41;;;;;;;18.42;10.23;;;;;;;;;;5014182;28;20032;-88
2021/10/25 03:09:07;;;;;;;16.38;9.52;;;;;;;;;;5013356;28;20021;-89
2021/10/25 03:11:33;;;;;;;17.17;10.48;;;;;;;;;;5035321;28;20413;-89
2021/10/25 03:13:58;;;;;;;14.88;9.10;;;;;;;;;;5031980;28;20017;-89
2021/10/25 03:16:24;;;;;;;11.70;9.43;;;;;;;;;;5031824;28;20022;-89
2021/10/25 03:18:49;;;;;;;16.55;10.27;;;;;;;;;;5014226;28;20075;-88
2021/10/25 03:21:15;;;;;;;14.55;9.63;;;;;;;;;;5013759;28;20021;-88
2021/10/25 03:23:41;;;;;;;20.63;11.10;;;;;;;;;;5013835;28;20041;-89
2021/10/25 03:26:06;;;;;;;21.95;10.50;;;;;;;;;;5013708;28;20024;-89
2021/10/25 03:28:32;;;;;;;17.42;10.68;;;;;;;;;;5013510;28;20037;-89
2021/10/25 03:30:57;;;;;;;17.27;11.30;;;;;;;;;;5031332;28;20050;-89
2021/10/25 03:33:22;;;;;;;22.63;11.40;;;;;;;;;;5031395;28;20033;-88
2021/10/25 03:35:48;;;;;;;16.40;11.65;;;;;;;;;;5013338;28;20028;-88
2021/10/25 03:38:15;;;;;;;19.17;10.68;;;;;;;;;;5038732;28;20017;-89
2021/10/25 03:40:43;;;;;;;19.60;11.95;;;;;;;;;;5019381;28;20037;-88
2021/10/25 03:43:09;;;;;;;19.60;10.90;;;;;;;;;;5013401;28;20140;-88
2021/10/25 03:45:39;;;;;;;17.20;11.15;;;;;;;;;;5031378;28;20083;-88
2021/10/25 03:48:12;;;;;;;22.05;12.70;;;;;;;;;;5031208;28;20025;-89
2021/10/25 03:50:39;;;;;;;16.23;11.82;;;;;;;;;;5013415;28;20033;-89
2021/10/25 03:53:21;;;;;;;17.40;11.57;;;;;;;;;;5013356;28;20079;-89
2021/10/25 03:56:07;;;;;;;18.50;11.80;;;;;;;;;;5013067;28;20025;-89
2021/10/25 04:28:29;;;;;;;19.80;13.05;;;;;;;;;;5031165;28;20039;-89
2021/10/25 04:31:00;;;;;;;21.13;13.68;;;;;;;;;;5012475;28;20053;-88
2021/10/25 04:33:25;;;;;;;20.23;15.15;;;;;;;;;;5012825;28;20029;-89
2021/10/25 04:35:51;;;;;;;20.23;12.80;;;;;;;;;;5030572;28;20025;-88
2021/10/25 04:38:16;;;;;;;17.63;12.85;;;;;;;;;;5014368;28;20017;-88
2021/10/25 04:40:41;;;;;;;21.23;14.07;;;;;;;;;;5015120;28;20523;-88
2021/10/25 04:43:10;;;;;;;19.63;14.68;;;;;;;;;;5012712;28;20715;-88
2021/10/25 04:45:35;;;;;;;21.48;15.40;;;;;;;;;;5012678;28;20025;-88
2021/10/25 04:48:01;;;;;;;23.02;15.50;;;;;;;;;;5012474;28;20027;-88
2021/10/25 04:50:26;;;;;;;25.95;16.38;;;;;;;;;;5012619;28;20024;-88
2021/10/25 04:52:51;;;;;;;28.50;16.65;;;;;;;;;;5012970;28;20492;-88
2021/10/25 04:55:16;;;;;;;21.65;15.85;;;;;;;;;;5030579;28;20513;-88
2021/10/25 04:57:42;;;;;;;21.35;13.30;;;;;;;;;;5012756;28;20103;-88
2021/10/25 05:00:08;;;;;;;19.57;15.10;;;;;;;;;;5012402;28;20029;-88
2021/10/25 05:02:33;;;;;;;25.92;15.68;;;;;;;;;;5030515;28;20286;-88
2021/10/25 05:04:58;;;;;;;25.05;16.45;;;;;;;;;;5015006;28;20032;-88
2021/10/25 05:09:55;;;;;;;24.38;17.88;;;;;;;;;;5098146;22;20888;-88
2021/10/25 05:12:21;;;;;;;25.27;16.58;;;;;;;;;;5049456;28;20017;-88
2021/10/25 05:14:46;;;;;;;23.30;15.20;;;;;;;;;;5031843;28;20031;-88
2021/10/25 05:17:12;;;;;;;20.92;13.32;;;;;;;;;;5031875;28;20064;-88
2021/10/25 05:19:38;;;;;;;21.55;15.00;;;;;;;;;;5031317;28;20079;-88
2021/10/25 05:22:06;;;;;;;24.20;15.88;;;;;;;;;;5031445;28;20111;-88
2021/10/25 05:24:32;;;;;;;30.95;18.60;;;;;;;;;;5031908;28;20037;-88
2021/10/25 05:26:57;;;;;;;22.40;17.60;;;;;;;;;;5031904;28;20021;-88
2021/10/25 05:29:22;;;;;;;32.30;21.00;;;;;;;;;;5032187;28;20389;-88
2021/10/25 05:31:49;;;;;;;26.10;19.67;;;;;;;;;;5032335;28;20021;-88
2021/10/25 05:34:14;;;;;;;28.05;19.00;;;;;;;;;;5035557;28;20032;-89
2021/10/25 05:36:41;;;;;;;25.17;17.10;;;;;;;;;;5035285;28;20027;-88
2021/10/25 05:39:08;;;;;;;25.27;17.30;;;;;;;;;;5042251;28;20095;-88
2021/10/25 05:41:34;;;;;;;25.15;17.90;;;;;;;;;;5034990;28;20053;-88
2021/10/25 05:43:59;;;;;;;24.10;18.58;;;;;;;;;;5034794;28;20072;-88
2021/10/25 05:46:25;;;;;;;22.17;16.77;;;;;;;;;;5034888;28;20036;-89
2021/10/25 05:48:51;;;;;;;22.90;16.20;;;;;;;;;;5034932;28;20264;-89
2021/10/25 05:51:17;;;;;;;25.50;18.45;;;;;;;;;;5034552;28;20017;-89
2021/10/25 05:53:42;;;;;;;23.80;16.05;;;;;;;;;;5053235;28;20017;-88
2021/10/25 05:56:08;;;;;;;24.67;17.80;;;;;;;;;;5034888;28;20041;-88
2021/10/25 05:58:33;;;;;;;19.05;15.15;;;;;;;;;;5034668;28;20035;-89
2021/10/25 06:01:02;;;;;;;26.27;19.63;;;;;;;;;;5034853;28;20024;-88
2021/10/25 06:03:31;;;;;;;27.85;18.88;;;;;;;;;;5031551;28;20029;-89
2021/10/25 06:05:57;;;;;;;32.65;20.77;;;;;;;;;;5019862;28;20029;-89
2021/10/25 06:08:22;;;;;;;23.75;16.83;;;;;;;;;;5032667;28;20052;-89
2021/10/25 06:10:47;;;;;;;32.83;20.50;;;;;;;;;;5034829;28;20056;-89
2021/10/25 06:13:20;;;;;;;29.52;20.55;;;;;;;;;;5035169;28;20270;-89
2021/10/25 06:15:55;;;;;;;24.20;17.92;;;;;;;;;;5035593;28;20052;-89
2021/10/25 06:18:24;;;;;;;26.40;17.33;;;;;;;;;;5036857;28;20032;-89
2021/10/25 06:20:55;;;;;;;30.70;20.80;;;;;;;;;;5036698;28;20738;-89
2021/10/25 06:23:27;;;;;;;24.77;18.20;;;;;;;;;;5053421;28;20484;-89
2021/10/25 06:25:53;;;;;;;24.63;17.52;;;;;;;;;;5042346;28;20021;-88
2021/10/25 06:28:19;;;;;;;31.95;22.20;;;;;;;;;;5037508;28;20021;-89
2021/10/25 06:30:54;;;;;;;24.38;17.17;;;;;;;;;;5037062;28;20074;-88
2021/10/25 06:33:19;;;;;;;29.75;18.63;;;;;;;;;;5035908;28;20025;-88
2021/10/25 06:35:46;;;;;;;31.92;22.08;;;;;;;;;;5053181;28;20028;-89
2021/10/25 06:38:30;;;;;;;33.67;22.63;;;;;;;;;;5037242;28;20055;-88
2021/10/25 06:41:00;;;;;;;26.63;18.83;;;;;;;;;;5021525;28;20397;-89
2021/10/25 06:43:26;;;;;;;27.83;20.45;;;;;;;;;;5036868;28;20037;-88
2021/10/25 06:45:51;;;;;;;31.02;20.92;;;;;;;;;;5035608;28;20552;-88
2021/10/25 06:48:17;;;;;;;42.42;24.90;;;;;;;;;;5038441;28;20495;-88
2021/10/25 06:50:42;;;;;;;30.58;22.38;;;;;;;;;;5032172;28;20021;-88
2021/10/25 06:53:08;;;;;;;27.92;20.70;;;;;;;;;;5036693;28;20485;-88
2021/10/25 06:55:34;;;;;;;33.65;22.15;;;;;;;;;;5035792;28;20021;-88
2021/10/25 06:58:00;;;;;;;30.38;21.38;;;;;;;;;;5034893;28;20017;-88
2021/10/25 07:00:26;;;;;;;25.10;19.65;;;;;;;;;;5036830;28;20012;-88
2021/10/25 07:02:51;;;;;;;29.15;21.15;;;;;;;;;;5036726;28;20037;-88
2021/10/25 07:05:17;;;;;;;33.33;21.50;;;;;;;;;;5036751;28;20048;-88
2021/10/25 07:07:42;;;;;;;37.42;22.65;;;;;;;;;;5036139;28;20070;-88
2021/10/25 07:10:10;;;;;;;34.60;22.92;;;;;;;;;;5039304;28;20049;-88
2021/10/25 07:12:35;;;;;;;29.80;22.00;;;;;;;;;;5034392;28;20025;-88
2021/10/25 07:15:01;;;;;;;26.30;19.55;;;;;;;;;;5035873;28;20392;-89
2021/10/25 07:17:37;;;;;;;47.08;24.30;;;;;;;;;;5030916;28;20017;-88
2021/10/25 07:59:17;;;;;;;31.25;18.92;;;;;;;;;;5034457;28;20051;-88
2021/10/25 08:09:00;;;;;;;32.78;20.58;;;;;;;;;;5036071;28;20056;-88
2021/10/25 08:11:36;;;;;;;28.42;20.30;;;;;;;;;;5014032;28;20030;-88
2021/10/25 08:14:05;;;;;;;33.92;21.42;;;;;;;;;;5015601;28;20025;-89
2021/10/25 08:16:48;;;;;;;26.23;19.73;;;;;;;;;;5014791;28;20064;-88
2021/10/25 08:19:27;;;;;;;28.02;19.45;;;;;;;;;;5019584;28;20065;-89
2021/10/25 08:22:03;;;;;;;28.42;21.52;;;;;;;;;;5022369;28;20021;-88
2021/10/25 08:24:29;;;;;;;28.90;19.23;;;;;;;;;;5032783;28;20033;-88
2021/10/25 08:26:55;;;;;;;27.23;21.38;;;;;;;;;;5034138;28;20032;-89
2021/10/25 08:29:21;;;;;;;26.65;19.38;;;;;;;;;;5035234;28;20025;-88
2021/10/25 08:39:48;;;;;;;23.73;17.98;;;;;;;;;;5033438;28;20038;-88
2021/10/25 08:42:17;;;;;;;35.22;20.60;;;;;;;;;;5015502;28;20033;-89
2021/10/25 08:44:42;;;;;;;26.50;19.27;;;;;;;;;;5014652;28;20036;-88
2021/10/25 08:47:08;;;;;;;24.40;19.02;;;;;;;;;;5013429;28;20033;-89
2021/10/25 08:49:34;;;;;;;28.33;18.95;;;;;;;;;;5020078;28;20014;-88
2021/10/25 08:52:00;;;;;;;28.15;19.30;;;;;;;;;;5015395;28;20024;-89
2021/10/25 08:54:26;;;;;;;27.98;19.90;;;;;;;;;;5032776;28;20021;-89
2021/10/25 08:56:52;;;;;;;31.08;22.30;;;;;;;;;;5047696;28;20021;-89
2021/10/25 08:59:18;;;;;;;27.50;21.42;;;;;;;;;;5033359;28;20044;-89
2021/10/25 09:01:43;;;;;;;29.67;21.40;;;;;;;;;;5034985;28;20021;-89
2021/10/25 09:04:11;;;;;;;25.27;19.90;;;;;;;;;;5021830;28;20033;-89
2021/10/25 09:06:36;;;;;;;31.58;21.90;;;;;;;;;;5032335;28;20053;-89
2021/10/25 09:09:04;;;;;;;29.15;21.77;;;;;;;;;;5036953;28;20076;-89
2021/10/25 09:11:32;;;;;;;29.77;20.80;;;;;;;;;;5038820;28;20043;-89
2021/10/25 09:13:58;;;;;;;28.13;20.98;;;;;;;;;;5038461;28;20025;-89
2021/10/25 09:16:23;;;;;;;26.25;20.70;;;;;;;;;;5038689;28;20047;-89
2021/10/25 09:18:49;;;;;;;28.08;21.73;;;;;;;;;;5055375;28;20392;-89
2021/10/25 09:21:15;;;;;;;26.83;21.15;;;;;;;;;;5036342;28;20027;-89
2021/10/25 09:23:50;;;;;;;29.98;22.67;;;;;;;;;;5038138;28;20060;-89
2021/10/25 09:26:16;;;;;;;25.45;20.05;;;;;;;;;;5038641;28;20369;-89
2021/10/25 09:28:47;;;;;;;31.77;20.52;;;;;;;;;;5038210;28;20380;-89
2021/10/25 09:31:21;;;;;;;30.10;21.63;;;;;;;;;;5018500;28;20029;-89
2021/10/25 09:33:52;;;;;;;26.42;19.40;;;;;;;;;;5021496;28;20032;-89
2021/10/25 09:36:18;;;;;;;23.15;19.50;;;;;;;;;;5036295;28;20028;-89
2021/10/25 09:49:36;;;;;;;24.48;19.27;;;;;;;;;;5036349;28;20038;-89
2021/10/25 09:52:03;;;;;;;27.67;19.27;;;;;;;;;;5026208;28;20063;-89
2021/10/25 09:54:29;;;;;;;24.77;19.30;;;;;;;;;;5035682;28;20025;-89
2021/10/25 09:57:24;;;;;;;26.27;19.70;;;;;;;;;;5039177;28;20104;-89
2021/10/25 09:59:53;;;;;;;25.17;19.58;;;;;;;;;;5051318;28;20495;-89
2021/10/25 10:02:22;;;;;;;29.20;19.73;;;;;;;;;;5036053;28;20052;-89
2021/10/25 10:04:49;;;;;;;23.42;18.20;;;;;;;;;;5036116;28;20048;-89
2021/10/25 10:07:18;;;;;;;24.55;17.65;;;;;;;;;;5033409;28;20039;-89
2021/10/25 10:09:47;;;;;;;26.23;18.90;;;;;;;;;;5030675;28;20981;-90
2021/10/25 10:14:45;;;;;;;23.02;18.30;;;;;;;;;;5093784;22;20080;-89
2021/10/25 10:17:12;;;;;;;27.30;19.73;;;;;;;;;;5040883;28;20036;-89
2021/10/25 10:19:37;;;;;;;22.05;18.30;;;;;;;;;;5035174;28;20113;-89
2021/10/25 10:22:05;;;;;;;21.45;18.10;;;;;;;;;;5055008;28;20049;-89
2021/10/25 10:24:33;;;;;;;22.77;17.98;;;;;;;;;;5038010;28;20668;-89
2021/10/25 10:27:02;;;;;;;22.75;18.50;;;;;;;;;;5036682;28;20555;-89
2021/10/25 10:29:35;;;;;;;27.77;17.73;;;;;;;;;;5053144;28;20047;-89
2021/10/25 10:32:02;;;;;;;27.10;17.33;;;;;;;;;;5036053;28;20017;-89
2021/10/25 10:34:36;;;;;;;24.45;17.30;;;;;;;;;;5037376;28;20025;-89
2021/10/25 10:37:02;;;;;;;19.83;15.88;;;;;;;;;;5039268;28;20021;-89
2021/10/25 10:39:28;;;;;;;24.05;18.05;;;;;;;;;;5034845;28;20035;-89
2021/10/25 10:41:55;;;;;;;22.85;17.13;;;;;;;;;;5036535;28;20023;-90
2021/10/25 10:44:21;;;;;;;20.33;16.45;;;;;;;;;;5036679;28;20037;-89
2021/10/25 10:47:00;;;;;;;23.05;18.15;;;;;;;;;;5036559;28;20017;-89
2021/10/25 10:49:33;;;;;;;21.60;17.25;;;;;;;;;;5036971;28;20017;-89
2021/10/25 10:52:16;;;;;;;19.92;16.42;;;;;;;;;;5036295;28;20437;-89
2021/10/25 10:54:46;;;;;;;23.55;16.15;;;;;;;;;;5034293;28;20033;-89
2021/10/25 10:57:26;;;;;;;19.40;15.52;;;;;;;;;;5032974;28;20370;-90
2021/10/25 10:59:56;;;;;;;21.92;16.20;;;;;;;;;;5023392;28;20029;-89
2021/10/25 11:02:21;;;;;;;20.20;15.02;;;;;;;;;;5034335;28;20021;-89
2021/10/25 11:04:49;;;;;;;20.27;16.08;;;;;;;;;;5035888;28;20023;-89
2021/10/25 11:07:16;;;;;;;24.88;17.05;;;;;;;;;;5036441;28;20115;-89
2021/10/25 11:09:42;;;;;;;18.10;14.85;;;;;;;;;;5032791;28;20101;-89
2021/10/25 11:12:11;;;;;;;19.52;14.77;;;;;;;;;;5035965;28;20104;-89
2021/10/25 11:14:39;;;;;;;23.95;16.90;;;;;;;;;;5053423;28;20040;-89
2021/10/25 11:17:15;;;;;;;21.85;15.73;;;;;;;;;;5017861;28;20017;-89
2021/10/25 11:19:51;;;;;;;24.60;17.88;;;;;;;;;;5019126;28;20066;-89
2021/10/25 11:22:35;;;;;;;26.52;18.10;;;;;;;;;;5014960;28;20026;-89
2021/10/25 11:25:01;;;;;;;19.25;15.38;;;;;;;;;;5013014;28;20095;-89
2021/10/25 11:27:33;;;;;;;22.30;16.70;;;;;;;;;;5018444;28;20020;-89
2021/10/25 11:30:14;;;;;;;23.83;16.23;;;;;;;;;;5034227;28;20017;-90
2021/10/25 11:35:18;;;;;;;21.45;16.27;;;;;;;;;;5234531;22;20055;-89
2021/10/25 11:37:51;;;;;;;24.17;16.35;;;;;;;;;;5048774;22;20057;-89
2021/10/25 11:43:09;;;;;;;19.33;14.90;;;;;;;;;;2666003;22;20719;-88
2021/10/25 11:45:37;;;;;;;17.67;14.80;;;;;;;;;;5036806;28;20052;-88
2021/10/25 11:48:04;;;;;;;19.92;15.68;;;;;;;;;;5051777;28;20028;-88
2021/10/25 11:53:08;;;;;;;19.92;15.85;;;;;;;;;;5051743;22;20557;-88
2021/10/25 11:58:04;;;;;;;20.23;13.57;;;;;;;;;;4988775;28;20133;-88
2021/10/25 12:00:35;;;;;;;18.40;15.75;;;;;;;;;;5069431;22;20069;-88
2021/10/25 12:03:13;;;;;;;20.77;16.17;;;;;;;;;;5089381;22;20061;-89
2021/10/25 12:05:39;;;;;;;22.10;16.63;;;;;;;;;;5116623;22;20065;-87
2021/10/25 12:08:08;;;;;;;19.98;16.02;;;;;;;;;;5032218;28;20040;-88
2021/10/25 12:10:34;;;;;;;20.83;15.30;;;;;;;;;;5032551;28;20134;-89
2021/10/25 12:13:01;;;;;;;23.27;18.13;;;;;;;;;;5032258;28;20017;-89
2021/10/25 12:15:28;;;;;;;25.77;17.20;;;;;;;;;;5032029;28;20154;-89
2021/10/25 12:17:57;;;;;;;20.40;16.58;;;;;;;;;;5050242;28;20025;-89
2021/10/25 12:20:24;;;;;;;26.27;17.98;;;;;;;;;;5050413;28;20025;-89
2021/10/25 12:22:56;;;;;;;24.52;19.27;;;;;;;;;;5032141;28;20062;-89
2021/10/25 12:25:22;;;;;;;22.10;18.67;;;;;;;;;;5035537;28;20056;-89
2021/10/25 12:27:49;;;;;;;23.35;19.60;;;;;;;;;;5031748;28;20457;-89
2021/10/25 12:30:16;;;;;;;31.55;20.63;;;;;;;;;;5019948;28;20603;-89
2021/10/25 12:32:55;;;;;;;33.92;20.77;;;;;;;;;;5012211;28;20496;-90
2021/10/25 12:35:38;;;;;;;29.95;20.90;;;;;;;;;;5012018;28;20033;-89
2021/10/25 12:38:10;;;;;;;25.70;19.15;;;;;;;;;;5020096;28;20029;-90
2021/10/25 12:40:37;;;;;;;24.95;18.50;;;;;;;;;;5031048;28;20024;-89
2021/10/25 12:43:05;;;;;;;22.10;19.60;;;;;;;;;;5037502;28;20617;-89
2021/10/25 12:45:42;;;;;;;28.60;20.58;;;;;;;;;;5038610;28;20380;-89
2021/10/25 12:48:12;;;;;;;25.75;20.10;;;;;;;;;;5028832;28;20025;-89
2021/10/25 12:50:39;;;;;;;33.20;20.38;;;;;;;;;;5036670;28;20374;-90
2021/10/25 12:53:09;;;;;;;24.63;20.67;;;;;;;;;;5018904;28;20576;-89
2021/10/25 12:55:35;;;;;;;26.15;21.30;;;;;;;;;;5034337;28;20504;-90
2021/10/25 12:58:01;;;;;;;28.92;23.13;;;;;;;;;;5014223;28;20049;-90
2021/10/25 13:00:37;;;;;;;28.75;21.25;;;;;;;;;;5013236;28;20067;-90
2021/10/25 13:03:11;;;;;;;31.05;23.05;;;;;;;;;;5033520;28;20033;-89
2021/10/25 13:05:42;;;;;;;32.60;24.92;;;;;;;;;;5014607;28;20034;-89
2021/10/25 13:08:08;;;;;;;32.72;24.85;;;;;;;;;;5015879;28;20036;-90
2021/10/25 13:10:34;;;;;;;30.88;24.27;;;;;;;;;;5017534;28;20029;-89
2021/10/25 13:13:01;;;;;;;34.42;23.83;;;;;;;;;;5020916;28;20029;-89
2021/10/25 13:15:30;;;;;;;29.05;23.55;;;;;;;;;;5015622;28;20025;-89
2021/10/25 13:17:57;;;;;;;28.40;23.05;;;;;;;;;;5014991;28;20029;-90
2021/10/25 13:20:23;;;;;;;27.30;24.27;;;;;;;;;;5015504;28;20044;-89
2021/10/25 13:22:49;;;;;;;24.75;20.73;;;;;;;;;;5015500;28;20107;-89
2021/10/25 13:25:15;;;;;;;30.15;20.63;;;;;;;;;;5032417;28;20018;-89
2021/10/25 13:27:42;;;;;;;30.90;23.25;;;;;;;;;;5014937;28;20056;-89
2021/10/25 13:30:15;;;;;;;25.98;20.15;;;;;;;;;;5098833;22;20064;-89
2021/10/25 13:32:41;;;;;;;32.45;22.27;;;;;;;;;;5038758;28;20745;-89
2021/10/25 13:35:07;;;;;;;26.13;21.23;;;;;;;;;;5033766;28;20075;-89
2021/10/25 13:37:32;;;;;;;26.35;21.30;;;;;;;;;;5035086;28;20016;-89
2021/10/25 13:39:58;;;;;;;29.42;22.48;;;;;;;;;;5035531;28;20013;-89
2021/10/25 13:42:25;;;;;;;31.15;22.20;;;;;;;;;;5034455;28;20017;-89
2021/10/25 13:44:50;;;;;;;25.40;19.95;;;;;;;;;;5035015;28;20075;-89
2021/10/25 13:47:17;;;;;;;26.10;21.63;;;;;;;;;;5159377;22;20159;-90
2021/10/25 13:49:44;;;;;;;27.02;20.98;;;;;;;;;;5036014;28;20036;-90
2021/10/25 13:52:09;;;;;;;30.95;22.40;;;;;;;;;;5036614;28;20017;-90
2021/10/25 13:54:35;;;;;;;26.55;21.55;;;;;;;;;;5039539;28;20534;-90
2021/10/25 13:57:07;;;;;;;37.25;24.13;;;;;;;;;;5036487;28;20036;-89
2021/10/25 13:59:32;;;;;;;;;;;;;;;;;;5035260;28;20090;-90
2021/10/25 14:01:58;;;;;;;35.00;23.88;;;;;;;;;;5034009;28;19975;-90
2021/10/25 14:04:24;;;;;;;29.23;23.27;;;;;;;;;;5032900;28;20061;-90
2021/10/25 14:06:50;;;;;;;33.08;23.88;;;;;;;;;;5033966;28;20059;-89
2021/10/25 14:09:15;;;;;;;33.55;25.77;;;;;;;;;;5061215;23;20053;-89
2021/10/25 14:11:44;;;;;;;31.52;25.00;;;;;;;;;;5034089;28;20024;-90
2021/10/25 14:16:42;;;;;;;27.27;23.88;;;;;;;;;;5065108;22;20065;-89
2021/10/25 14:19:07;;;;;;;31.02;25.83;;;;;;;;;;5034607;28;20393;-89
2021/10/25 14:21:34;;;;;;;32.75;24.67;;;;;;;;;;5034212;28;20020;-90
2021/10/25 14:24:00;;;;;;;28.90;23.95;;;;;;;;;;5033265;28;20090;-89
2021/10/25 14:26:28;;;;;;;32.47;26.15;;;;;;;;;;5049477;28;20036;-89
2021/10/25 14:28:53;;;;;;;36.58;24.83;;;;;;;;;;5033079;28;20494;-89
2021/10/25 14:31:18;;;;;;;33.42;25.27;;;;;;;;;;5033807;28;20373;-89
2021/10/25 14:33:44;;;;;;;29.73;24.40;;;;;;;;;;5033177;28;20025;-89
2021/10/25 14:36:10;;;;;;;30.27;23.98;;;;;;;;;;5032428;28;20264;-89
2021/10/25 14:43:43;;;;;;;33.80;24.42;;;;;;;;;;5031795;28;20645;-89
2021/10/25 14:46:22;;;;;;;38.15;25.05;;;;;;;;;;5013469;28;20036;-89
2021/10/25 14:48:55;;;;;;;37.75;27.30;;;;;;;;;;5028462;28;20059;-90
2021/10/25 14:54:17;;;;;;;35.88;25.52;;;;;;;;;;5050412;28;20035;-89
2021/10/25 14:56:42;;;;;;;32.08;27.25;;;;;;;;;;5033445;28;20056;-89
2021/10/25 14:59:08;;;;;;;35.65;30.10;;;;;;;;;;5033062;28;20794;-89
2021/10/25 15:01:34;;;;;;;35.55;27.83;;;;;;;;;;5036048;28;20018;-89
2021/10/25 15:03:59;;;;;;;32.83;28.33;;;;;;;;;;5014932;28;20029;-89
2021/10/25 15:06:24;;;;;;;36.90;31.98;;;;;;;;;;5012837;28;20079;-89
2021/10/25 15:08:50;;;;;;;46.87;34.17;;;;;;;;;;5013631;28;20056;-89
2021/10/25 15:11:15;;;;;;;37.65;30.05;;;;;;;;;;5013145;28;20260;-89
2021/10/25 15:13:40;;;;;;;34.42;29.13;;;;;;;;;;5012993;28;20025;-89
2021/10/25 15:16:06;;;;;;;41.97;32.65;;;;;;;;;;5012885;28;20470;-89
2021/10/25 15:18:31;;;;;;;36.67;29.38;;;;;;;;;;5014195;28;20465;-89
2021/10/25 15:20:57;;;;;;;46.75;35.03;;;;;;;;;;5015632;28;20462;-89
2021/10/25 15:23:22;;;;;;;51.03;33.95;;;;;;;;;;5040383;28;20037;-90
2021/10/25 15:25:54;;;;;;;44.60;32.85;;;;;;;;;;5015295;28;20025;-89
2021/10/25 15:28:20;;;;;;;54.67;39.22;;;;;;;;;;5028090;28;20059;-89
2021/10/25 15:30:45;;;;;;;51.58;39.17;;;;;;;;;;5033496;28;20438;-89
2021/10/25 15:33:12;;;;;;;50.70;37.30;;;;;;;;;;5032796;28;20021;-89
2021/10/25 15:35:37;;;;;;;55.97;39.08;;;;;;;;;;5047017;28;20216;-89
2021/10/25 15:38:03;;;;;;;54.95;34.42;;;;;;;;;;5030638;28;20433;-90
2021/10/25 15:40:30;;;;;;;63.13;43.60;;;;;;;;;;5024563;28;20066;-90
2021/10/25 15:42:59;;;;;;;67.57;43.35;;;;;;;;;;5024928;28;20128;-89
2021/10/25 15:45:25;;;;;;;54.65;37.72;;;;;;;;;;5035891;28;20017;-89
2021/10/25 15:47:52;;;;;;;53.83;39.05;;;;;;;;;;5036282;28;20474;-89
2021/10/25 15:50:17;;;;;;;66.75;43.42;;;;;;;;;;5053480;28;20013;-89
2021/10/25 15:52:43;;;;;;;62.83;42.70;;;;;;;;;;5035534;28;20756;-89
2021/10/25 15:55:08;;;;;;;59.20;38.85;;;;;;;;;;5014884;28;20014;-89
2021/10/25 15:57:35;;;;;;;53.75;39.10;;;;;;;;;;5015828;28;20095;-89
2021/10/25 16:00:00;;;;;;;56.72;39.95;;;;;;;;;;5016072;28;20043;-89
2021/10/25 16:02:26;;;;;;;66.32;42.95;;;;;;;;;;5016023;28;20013;-89
2021/10/25 16:04:51;;;;;;;60.35;40.75;;;;;;;;;;5031066;28;20692;-89
2021/10/25 16:07:17;;;;;;;50.13;36.72;;;;;;;;;;5034169;28;20033;-89
2021/10/25 16:09:43;;;;;;;63.53;42.70;;;;;;;;;;5035981;28;20017;-89
2021/10/25 16:12:09;;;;;;;64.60;45.83;;;;;;;;;;5042772;28;20009;-89
2021/10/25 16:14:35;;;;;;;69.32;47.53;;;;;;;;;;5035010;28;20141;-89
2021/10/25 16:17:01;;;;;;;66.75;43.80;;;;;;;;;;5032743;28;20111;-89
2021/10/25 16:19:26;;;;;;;52.92;38.70;;;;;;;;;;5033969;28;20067;-89
2021/10/25 16:21:52;;;;;;;53.63;37.97;;;;;;;;;;5052585;28;20496;-90
2021/10/25 16:24:19;;;;;;;45.45;36.20;;;;;;;;;;5034127;28;20040;-90